createdAt,value
2019-02-06T00:02:33.736Z,148119.63
2019-02-06T00:03:39.772Z,148093.16
2019-02-06T00:04:45.435Z,148120.27
2019-02-06T00:05:50.788Z,148173.17
2019-02-06T00:06:56.810Z,148222.39
2019-02-06T00:08:02.454Z,148224.87
2019-02-06T00:09:07.506Z,148170.69
2019-02-06T00:10:13.689Z,148149.86
2019-02-06T00:11:19.352Z,148161.86
2019-02-06T00:12:25.311Z,148194.00
2019-02-06T00:13:31.321Z,148166.25
2019-02-06T00:14:36.905Z,148206.59
2019-02-06T00:15:42.361Z,148226.14
2019-02-06T00:16:48.066Z,148226.14
2019-02-06T00:17:53.481Z,148173.81
2019-02-06T00:18:59.663Z,148147.38
2019-02-06T00:20:04.955Z,148167.52
2019-02-06T00:21:10.281Z,148202.83
2019-02-06T00:22:16.319Z,148212.30
2019-02-06T00:23:22.275Z,148208.48
2019-02-06T00:24:28.231Z,148169.42
2019-02-06T00:25:34.201Z,148165.63
2019-02-06T00:26:40.222Z,148115.19
2019-02-06T00:27:46.267Z,148084.33
2019-02-06T00:28:51.915Z,148074.23
2019-02-06T00:29:57.890Z,148056.59
2019-02-06T00:31:03.001Z,148045.28
2019-02-06T00:32:09.053Z,148072.34
2019-02-06T00:33:15.040Z,148045.91
2019-02-06T00:34:21.038Z,148078.03
2019-02-06T00:35:26.994Z,148091.87
2019-02-06T00:36:32.363Z,148069.84
2019-02-06T00:37:38.318Z,148139.77
2019-02-06T00:38:45.003Z,148124.02
2019-02-06T00:39:51.542Z,148088.13
2019-02-06T00:40:57.549Z,148033.28
2019-02-06T00:42:03.215Z,148028.27
2019-02-06T00:43:09.226Z,148028.27
2019-02-06T00:44:15.205Z,148011.88
2019-02-06T00:45:21.142Z,148003.06
2019-02-06T00:46:27.171Z,148000.53
2019-02-06T00:47:33.160Z,147996.09
2019-02-06T00:48:39.132Z,148062.92
2019-02-06T00:49:45.156Z,148069.84
2019-02-06T00:50:51.192Z,148062.92
2019-02-06T00:51:57.163Z,148055.95
2019-02-06T00:53:02.806Z,148105.16
2019-02-06T00:54:08.891Z,148196.53
2019-02-06T00:55:14.236Z,148233.08
2019-02-06T00:56:20.228Z,148216.05
2019-02-06T00:57:26.235Z,148228.69
2019-02-06T00:58:31.797Z,148182.00
2019-02-06T00:59:37.767Z,148109.53
2019-02-06T01:00:43.503Z,148081.80
2019-02-06T01:01:49.481Z,148062.92
2019-02-06T01:02:54.753Z,148045.28
2019-02-06T01:04:00.391Z,148025.72
2019-02-06T01:05:05.802Z,148010.63
2019-02-06T01:06:11.516Z,148007.44
2019-02-06T01:07:16.824Z,147999.25
2019-02-06T01:08:22.420Z,148008.72
2019-02-06T01:09:28.411Z,148019.44
2019-02-06T01:10:34.586Z,148038.31
2019-02-06T01:11:40.153Z,148037.72
2019-02-06T01:12:45.431Z,148051.56
2019-02-06T01:13:51.079Z,148020.70
2019-02-06T01:14:57.062Z,148007.44
2019-02-06T01:16:03.196Z,148044.00
2019-02-06T01:17:08.770Z,148011.25
2019-02-06T01:18:14.359Z,148007.44
2019-02-06T01:19:19.630Z,148028.89
2019-02-06T01:20:25.669Z,147996.09
2019-02-06T01:21:32.115Z,147989.17
2019-02-06T01:22:38.251Z,148017.53
2019-02-06T01:23:44.211Z,147969.03
2019-02-06T01:24:49.866Z,148003.69
2019-02-06T01:25:55.539Z,147969.67
2019-02-06T01:27:01.541Z,148017.53
2019-02-06T01:28:07.157Z,147987.27
2019-02-06T01:29:13.224Z,147918.66
2019-02-06T01:30:19.105Z,147899.75
2019-02-06T01:31:24.876Z,147861.94
2019-02-06T01:32:30.907Z,147839.28
2019-02-06T01:33:36.910Z,147802.12
2019-02-06T01:34:42.863Z,147810.94
2019-02-06T01:35:50.210Z,147802.75
2019-02-06T01:36:54.599Z,147800.91
2019-02-06T01:38:00.599Z,147803.37
2019-02-06T01:39:05.684Z,147811.56
2019-02-06T01:40:13.974Z,147807.19
2019-02-06T01:41:19.971Z,147799.00
2019-02-06T01:42:26.868Z,147792.08
2019-02-06T01:43:33.009Z,147797.73
2019-02-06T01:44:39.000Z,147780.73
2019-02-06T01:45:44.398Z,147774.45
2019-02-06T01:46:50.348Z,147747.38
2019-02-06T01:47:56.371Z,147741.09
2019-02-06T01:49:02.343Z,147731.00
2019-02-06T01:50:07.425Z,147721.56
2019-02-06T01:51:13.124Z,147720.92
2019-02-06T01:52:19.216Z,147716.55
2019-02-06T01:53:25.231Z,147672.48
2019-02-06T01:54:31.276Z,147676.86
2019-02-06T01:55:36.809Z,147708.36
2019-02-06T01:56:42.973Z,147707.73
2019-02-06T01:57:49.091Z,147722.19
2019-02-06T01:58:55.251Z,147671.22
2019-02-06T02:00:01.173Z,147649.84
2019-02-06T02:01:06.453Z,147638.50
2019-02-06T02:02:12.132Z,147634.70
2019-02-06T02:03:18.937Z,147621.50
2019-02-06T02:04:25.568Z,147608.27
2019-02-06T02:05:31.563Z,147581.25
2019-02-06T02:06:37.595Z,147602.63
2019-02-06T02:07:43.016Z,147595.08
2019-02-06T02:08:48.419Z,147591.28
2019-02-06T02:09:54.392Z,147608.91
2019-02-06T02:11:00.442Z,147586.91
2019-02-06T02:12:05.779Z,147570.55
2019-02-06T02:13:11.406Z,147607.69
2019-02-06T02:14:17.441Z,147634.70
2019-02-06T02:15:23.463Z,147652.97
2019-02-06T02:16:29.477Z,147649.84
2019-02-06T02:17:35.446Z,147654.86
2019-02-06T02:18:41.450Z,147622.14
2019-02-06T02:19:46.716Z,147588.80
2019-02-06T02:20:52.343Z,147625.89
2019-02-06T02:21:57.684Z,147595.08
2019-02-06T02:23:03.558Z,147597.61
2019-02-06T02:24:09.078Z,147588.17
2019-02-06T02:25:14.384Z,147600.09
2019-02-06T02:26:20.436Z,147552.94
2019-02-06T02:27:26.146Z,147561.11
2019-02-06T02:28:31.746Z,147542.22
2019-02-06T02:29:37.714Z,147503.88
2019-02-06T02:30:43.162Z,147515.80
2019-02-06T02:31:48.649Z,147503.88
2019-02-06T02:32:54.628Z,147515.22
2019-02-06T02:34:00.634Z,147539.11
2019-02-06T02:35:05.904Z,147529.03
2019-02-06T02:36:16.095Z,147539.75
2019-02-06T02:37:17.531Z,147527.77
2019-02-06T02:38:23.552Z,147495.70
2019-02-06T02:39:29.607Z,147451.67
2019-02-06T02:40:35.650Z,147446.03
2019-02-06T02:41:41.495Z,147425.25
2019-02-06T02:42:47.573Z,147403.28
2019-02-06T02:43:53.553Z,147425.89
2019-02-06T02:44:59.568Z,147447.92
2019-02-06T02:46:04.948Z,147423.36
2019-02-06T02:47:11.078Z,147418.34
2019-02-06T02:48:17.037Z,147444.77
2019-02-06T02:49:23.080Z,147431.53
2019-02-06T02:50:29.071Z,147443.50
2019-02-06T02:51:35.045Z,147427.16
2019-02-06T02:52:40.383Z,147455.47
2019-02-06T02:53:46.377Z,147476.83
2019-02-06T02:54:52.395Z,147454.20
2019-02-06T02:55:58.418Z,147456.09
2019-02-06T02:57:04.615Z,147448.52
2019-02-06T02:58:09.898Z,147440.34
2019-02-06T02:59:15.893Z,147413.34
2019-02-06T03:00:26.600Z,147392.58
2019-02-06T03:01:33.731Z,147386.30
2019-02-06T03:02:39.491Z,147361.16
2019-02-06T03:03:45.268Z,147336.02
2019-02-06T03:04:51.693Z,147324.69
2019-02-06T03:05:57.428Z,147359.89
2019-02-06T03:07:03.488Z,147395.73
2019-02-06T03:08:09.354Z,147407.02
2019-02-06T03:09:15.047Z,147398.22
2019-02-06T03:10:21.045Z,147371.22
2019-02-06T03:11:27.080Z,147361.16
2019-02-06T03:12:33.086Z,147346.08
2019-02-06T03:13:39.084Z,147333.48
2019-02-06T03:14:45.161Z,147316.50
2019-02-06T03:15:51.104Z,147361.78
2019-02-06T03:16:57.073Z,147395.73
2019-02-06T03:18:02.712Z,147372.44
2019-02-06T03:19:08.795Z,147382.50
2019-02-06T03:20:14.085Z,147430.95
2019-02-06T03:21:19.786Z,147410.19
2019-02-06T03:22:25.789Z,147360.53
2019-02-06T03:23:31.847Z,147328.47
2019-02-06T03:24:37.504Z,147328.47
2019-02-06T03:25:43.138Z,147312.77
2019-02-06T03:26:49.124Z,147324.69
2019-02-06T03:27:55.145Z,147296.42
2019-02-06T03:29:01.226Z,147306.44
2019-02-06T03:30:06.631Z,147286.36
2019-02-06T03:31:12.691Z,147288.84
2019-02-06T03:32:18.745Z,147290.11
2019-02-06T03:33:24.714Z,147275.03
2019-02-06T03:34:30.743Z,147266.88
2019-02-06T03:35:36.770Z,147259.33
2019-02-06T03:36:42.764Z,147241.73
2019-02-06T03:37:48.765Z,147248.00
2019-02-06T03:38:54.762Z,147230.41
2019-02-06T03:40:00.773Z,147227.30
2019-02-06T03:41:06.611Z,147213.44
2019-02-06T03:42:12.654Z,147231.67
2019-02-06T03:43:18.312Z,147264.34
2019-02-06T03:44:23.949Z,147241.09
2019-02-06T03:45:29.979Z,147238.58
2019-02-06T03:46:36.015Z,147214.08
2019-02-06T03:47:41.707Z,147212.22
2019-02-06T03:48:47.303Z,147210.33
2019-02-06T03:49:54.061Z,147255.53
2019-02-06T03:51:00.567Z,147237.36
2019-02-06T03:52:06.213Z,147227.30
2019-02-06T03:53:11.948Z,147231.03
2019-02-06T03:54:17.927Z,147233.56
2019-02-06T03:55:24.039Z,147232.94
2019-02-06T03:56:30.025Z,147273.14
2019-02-06T03:57:36.034Z,147312.13
2019-02-06T03:58:42.035Z,147329.11
2019-02-06T03:59:48.060Z,147313.98
2019-02-06T04:00:54.105Z,147284.47
2019-02-06T04:02:00.094Z,147270.66
2019-02-06T04:03:05.363Z,147255.53
2019-02-06T04:04:11.349Z,147224.77
2019-02-06T04:05:16.706Z,147175.78
2019-02-06T04:06:22.726Z,147164.45
2019-02-06T04:07:28.742Z,147153.75
2019-02-06T04:08:34.696Z,147131.80
2019-02-06T04:09:40.687Z,147136.80
2019-02-06T04:10:47.637Z,147133.69
2019-02-06T04:11:54.035Z,147131.80
2019-02-06T04:13:00.029Z,147136.22
2019-02-06T04:14:05.374Z,147136.80
2019-02-06T04:15:10.708Z,147143.75
2019-02-06T04:16:16.697Z,147139.95
2019-02-06T04:17:22.648Z,147129.27
2019-02-06T04:18:28.692Z,147120.47
2019-02-06T04:19:34.354Z,147117.36
2019-02-06T04:20:40.339Z,147110.47
2019-02-06T04:21:46.307Z,147102.94
2019-02-06T04:22:52.285Z,147097.25
2019-02-06T04:23:58.291Z,147093.50
2019-02-06T04:25:03.621Z,147089.72
2019-02-06T04:26:09.765Z,147092.23
2019-02-06T04:27:15.416Z,147117.36
2019-02-06T04:28:21.367Z,147118.63
2019-02-06T04:29:27.328Z,147104.14
2019-02-06T04:30:33.351Z,147106.03
2019-02-06T04:31:39.350Z,147096.61
2019-02-06T04:32:45.050Z,147092.23
2019-02-06T04:33:51.033Z,147088.45
2019-02-06T04:34:57.038Z,147087.19
2019-02-06T04:36:03.084Z,147087.81
2019-02-06T04:37:09.104Z,147083.44
2019-02-06T04:38:15.080Z,147080.28
2019-02-06T04:39:21.020Z,147079.03
2019-02-06T04:40:27.063Z,147082.19
2019-02-06T04:41:32.728Z,147081.55
2019-02-06T04:42:38.759Z,147076.55
2019-02-06T04:43:44.867Z,147073.39
2019-02-06T04:44:50.847Z,147075.28
2019-02-06T04:45:56.873Z,147084.08
2019-02-06T04:47:02.850Z,147072.13
2019-02-06T04:48:08.542Z,147072.13
2019-02-06T04:49:14.507Z,147073.39
2019-02-06T04:50:20.496Z,147070.86
2019-02-06T04:51:26.490Z,147071.50
2019-02-06T04:52:32.499Z,147062.70
2019-02-06T04:53:38.579Z,147058.33
2019-02-06T04:54:44.642Z,147054.55
2019-02-06T04:55:50.643Z,147048.91
2019-02-06T04:56:56.648Z,147048.91
2019-02-06T04:58:02.647Z,147053.91
2019-02-06T04:59:08.611Z,147049.53
2019-02-06T05:00:23.453Z,147051.44
2019-02-06T05:01:29.082Z,147049.53
2019-02-06T05:02:35.120Z,147043.27
2019-02-06T05:03:41.136Z,147043.27
2019-02-06T05:04:47.164Z,147049.53
2019-02-06T05:05:53.252Z,147043.27
2019-02-06T05:06:58.881Z,147048.91
2019-02-06T05:08:05.136Z,147038.84
2019-02-06T05:09:11.183Z,147031.95
2019-02-06T05:10:16.896Z,147034.47
2019-02-06T05:11:22.951Z,147033.22
2019-02-06T05:12:29.010Z,147038.22
2019-02-06T05:13:35.028Z,147036.95
2019-02-06T05:14:41.715Z,147055.81
2019-02-06T05:15:48.238Z,147053.28
2019-02-06T05:16:54.190Z,147031.95
2019-02-06T05:18:00.149Z,147021.27
2019-02-06T05:19:06.240Z,147018.78
2019-02-06T05:20:22.851Z,147013.73
2019-02-06T05:21:28.836Z,147010.63
2019-02-06T05:22:34.823Z,147015.63
2019-02-06T05:23:40.847Z,147020.00
2019-02-06T05:24:46.830Z,147012.47
2019-02-06T05:25:52.828Z,147013.11
2019-02-06T05:26:58.834Z,147013.73
2019-02-06T05:28:04.147Z,147010.00
2019-02-06T05:29:10.182Z,147008.73
2019-02-06T05:30:15.843Z,147004.94
2019-02-06T05:31:21.860Z,147009.38
2019-02-06T05:32:27.814Z,147010.00
2019-02-06T05:33:33.753Z,147000.58
2019-02-06T05:34:39.786Z,146988.00
2019-02-06T05:35:45.891Z,146993.05
2019-02-06T05:36:51.859Z,146996.16
2019-02-06T05:37:57.882Z,147009.38
2019-02-06T05:39:03.342Z,147014.37
2019-02-06T05:40:08.664Z,147025.69
2019-02-06T05:41:14.665Z,147006.84
2019-02-06T05:42:20.268Z,146994.27
2019-02-06T05:43:26.604Z,147001.20
2019-02-06T05:44:32.631Z,147003.05
2019-02-06T05:45:38.604Z,146986.73
2019-02-06T05:46:44.640Z,146985.52
2019-02-06T05:47:51.039Z,146984.89
2019-02-06T05:48:57.114Z,146979.20
2019-02-06T05:50:03.085Z,146969.78
2019-02-06T05:51:09.097Z,146970.41
2019-02-06T05:52:15.150Z,146963.52
2019-02-06T05:53:21.135Z,146984.89
2019-02-06T05:54:27.136Z,146992.41
2019-02-06T05:55:33.143Z,147047.64
2019-02-06T05:56:39.212Z,147075.28
2019-02-06T05:57:45.707Z,147088.45
2019-02-06T05:58:51.915Z,147078.41
2019-02-06T05:59:57.849Z,147063.97
2019-02-06T06:01:03.476Z,147102.94
2019-02-06T06:02:09.474Z,147101.03
2019-02-06T06:03:15.471Z,147065.23
2019-02-06T06:04:21.547Z,147054.55
2019-02-06T06:05:27.182Z,147033.84
2019-02-06T06:06:33.161Z,147021.91
2019-02-06T06:07:45.133Z,147016.27
2019-02-06T06:08:45.206Z,147016.89
2019-02-06T06:09:51.215Z,147006.84
2019-02-06T06:10:57.198Z,146991.78
2019-02-06T06:12:03.177Z,147001.20
2019-02-06T06:13:09.208Z,146993.05
2019-02-06T06:14:15.213Z,146976.09
2019-02-06T06:15:20.502Z,146958.52
2019-02-06T06:16:26.502Z,146945.31
2019-02-06T06:17:32.492Z,146935.25
2019-02-06T06:18:38.510Z,146941.56
2019-02-06T06:19:44.464Z,146935.25
2019-02-06T06:20:50.478Z,146934.67
2019-02-06T06:21:56.506Z,146942.83
2019-02-06T06:23:02.449Z,146945.31
2019-02-06T06:24:09.189Z,146946.56
2019-02-06T06:25:13.053Z,146954.09
2019-02-06T06:26:19.128Z,146941.56
2019-02-06T06:27:25.069Z,146932.78
2019-02-06T06:28:31.115Z,146938.41
2019-02-06T06:29:36.887Z,146949.72
2019-02-06T06:30:42.935Z,146974.83
2019-02-06T06:31:48.926Z,146973.56
2019-02-06T06:32:54.865Z,146963.52
2019-02-06T06:34:00.856Z,146970.41
2019-02-06T06:35:06.109Z,146986.09
2019-02-06T06:36:12.099Z,146986.09
2019-02-06T06:37:18.149Z,146988.00
2019-02-06T06:38:24.229Z,146996.78
2019-02-06T06:39:30.262Z,146994.89
2019-02-06T06:40:35.900Z,146981.73
2019-02-06T06:41:41.183Z,146989.89
2019-02-06T06:42:46.830Z,147006.84
2019-02-06T06:43:52.834Z,147005.58
2019-02-06T06:44:58.941Z,147006.84
2019-02-06T06:46:04.641Z,147026.31
2019-02-06T06:47:10.677Z,147036.33
2019-02-06T06:48:16.711Z,147027.53
2019-02-06T06:49:22.884Z,147031.95
2019-02-06T06:50:28.155Z,147019.38
2019-02-06T06:51:34.120Z,147012.47
2019-02-06T06:52:40.097Z,147026.31
2019-02-06T06:53:46.082Z,147028.16
2019-02-06T06:54:52.081Z,147035.11
2019-02-06T06:55:58.154Z,147030.69
2019-02-06T06:57:03.859Z,147028.16
2019-02-06T06:58:10.242Z,147028.16
2019-02-06T06:59:16.368Z,147035.11
2019-02-06T07:00:24.127Z,147034.47
2019-02-06T07:01:31.542Z,147033.22
2019-02-06T07:02:37.681Z,147043.91
2019-02-06T07:03:43.619Z,147030.06
2019-02-06T07:04:49.606Z,147032.58
2019-02-06T07:05:55.598Z,147030.06
2019-02-06T07:07:01.236Z,147057.06
2019-02-06T07:08:09.552Z,147072.75
2019-02-06T07:09:12.936Z,147062.06
2019-02-06T07:10:18.204Z,147053.28
2019-02-06T07:11:24.139Z,147053.28
2019-02-06T07:12:30.179Z,147069.59
2019-02-06T07:13:37.179Z,147055.17
2019-02-06T07:14:42.312Z,147093.50
2019-02-06T07:15:48.314Z,147119.25
2019-02-06T07:16:54.363Z,147111.67
2019-02-06T07:17:59.656Z,147099.78
2019-02-06T07:19:05.630Z,147102.94
2019-02-06T07:20:10.976Z,147107.94
2019-02-06T07:21:16.936Z,147119.89
2019-02-06T07:22:23.619Z,147124.27
2019-02-06T07:23:29.722Z,147125.53
2019-02-06T07:24:35.756Z,147119.89
2019-02-06T07:25:41.762Z,147120.47
2019-02-06T07:26:47.706Z,147129.27
2019-02-06T07:27:53.363Z,147153.17
2019-02-06T07:28:59.377Z,147171.34
2019-02-06T07:30:05.541Z,147155.02
2019-02-06T07:31:11.174Z,147173.25
2019-02-06T07:32:17.162Z,147168.88
2019-02-06T07:33:23.140Z,147180.78
2019-02-06T07:34:29.077Z,147192.73
2019-02-06T07:35:35.054Z,147210.97
2019-02-06T07:36:40.991Z,147197.11
2019-02-06T07:37:46.708Z,147214.08
2019-02-06T07:38:52.747Z,147224.77
2019-02-06T07:39:58.728Z,147232.31
2019-02-06T07:41:04.063Z,147239.84
2019-02-06T07:42:09.706Z,147250.53
2019-02-06T07:43:16.406Z,147240.47
2019-02-06T07:44:22.941Z,147264.34
2019-02-06T07:45:28.271Z,147271.87
2019-02-06T07:46:34.261Z,147285.73
2019-02-06T07:47:39.956Z,147270.66
2019-02-06T07:48:45.956Z,147268.13
2019-02-06T07:49:51.944Z,147268.77
2019-02-06T07:50:57.956Z,147266.23
2019-02-06T07:52:04.185Z,147268.77
2019-02-06T07:53:09.828Z,147274.41
2019-02-06T07:54:15.458Z,147294.53
2019-02-06T07:55:20.742Z,147303.97
2019-02-06T07:56:26.669Z,147301.44
2019-02-06T07:57:32.688Z,147320.94
2019-02-06T07:58:38.982Z,147353.61
2019-02-06T07:59:44.968Z,147369.33
2019-02-06T08:00:50.980Z,147366.16
2019-02-06T08:01:56.967Z,147358.00
2019-02-06T08:03:02.826Z,147374.97
2019-02-06T08:04:09.539Z,147385.03
2019-02-06T08:05:16.745Z,147391.31
2019-02-06T08:06:22.766Z,147386.94
2019-02-06T08:07:28.842Z,147405.17
2019-02-06T08:08:36.393Z,147429.69
2019-02-06T08:09:40.187Z,147429.69
2019-02-06T08:10:46.162Z,147456.69
2019-02-06T08:11:52.164Z,147440.97
2019-02-06T08:12:57.922Z,147465.48
2019-02-06T08:14:03.640Z,147465.48
2019-02-06T08:15:09.253Z,147463.02
2019-02-06T08:16:14.884Z,147461.11
2019-02-06T08:17:20.843Z,147462.37
2019-02-06T08:18:26.847Z,147476.83
2019-02-06T08:19:32.841Z,147476.19
2019-02-06T08:20:38.966Z,147488.80
2019-02-06T08:21:44.857Z,147497.59
2019-02-06T08:22:51.198Z,147522.13
2019-02-06T08:23:57.354Z,147515.80
2019-02-06T08:25:03.765Z,147520.86
2019-02-06T08:26:10.095Z,147514.58
2019-02-06T08:27:16.157Z,147538.47
2019-02-06T08:28:22.207Z,147552.30
2019-02-06T08:29:28.223Z,147574.34
2019-02-06T08:30:33.476Z,147570.55
2019-02-06T08:31:40.453Z,147590.70
2019-02-06T08:32:46.140Z,147602.63
2019-02-06T08:33:52.234Z,147610.80
2019-02-06T08:34:58.170Z,147632.22
2019-02-06T08:36:03.491Z,147652.33
2019-02-06T08:37:09.425Z,147673.11
2019-02-06T08:38:15.394Z,147693.22
2019-02-06T08:39:21.384Z,147701.41
2019-02-06T08:40:26.691Z,147731.64
2019-02-06T08:41:32.684Z,147775.08
2019-02-06T08:42:38.663Z,147802.75
2019-02-06T08:43:44.695Z,147841.19
2019-02-06T08:44:50.639Z,147833.00
2019-02-06T08:45:56.591Z,147820.38
2019-02-06T08:47:02.602Z,147824.19
2019-02-06T08:48:08.294Z,147833.63
2019-02-06T08:49:14.260Z,147865.73
2019-02-06T08:50:20.383Z,147858.81
2019-02-06T08:51:26.010Z,147865.09
2019-02-06T08:52:32.025Z,147881.47
2019-02-06T08:53:38.030Z,147889.66
2019-02-06T08:54:44.845Z,147912.31
2019-02-06T08:55:50.487Z,147961.48
2019-02-06T08:56:56.153Z,147977.86
2019-02-06T08:58:01.473Z,147992.97
2019-02-06T08:59:06.832Z,147982.25
2019-02-06T09:00:15.866Z,148000.53
2019-02-06T09:01:21.879Z,148051.56
2019-02-06T09:02:27.502Z,148076.78
2019-02-06T09:03:33.523Z,148094.42
2019-02-06T09:04:39.127Z,148075.50
2019-02-06T09:05:45.102Z,148073.59
2019-02-06T09:06:51.101Z,148074.87
2019-02-06T09:07:57.674Z,148074.87
2019-02-06T09:09:03.095Z,148086.86
2019-02-06T09:10:17.168Z,148072.34
2019-02-06T09:11:23.174Z,148110.81
2019-02-06T09:12:29.153Z,148112.70
2019-02-06T09:13:34.964Z,148110.81
2019-02-06T09:14:40.965Z,148113.92
2019-02-06T09:15:46.993Z,148134.75
2019-02-06T09:16:52.259Z,148133.48
2019-02-06T09:17:57.905Z,148163.13
2019-02-06T09:19:03.833Z,148182.00
2019-02-06T09:20:10.622Z,148169.42
2019-02-06T09:21:16.649Z,148243.81
2019-02-06T09:22:22.672Z,148253.91
2019-02-06T09:23:28.309Z,148231.86
2019-02-06T09:24:34.303Z,148215.42
2019-02-06T09:25:39.944Z,148229.95
2019-02-06T09:26:45.574Z,148276.59
2019-02-06T09:27:50.822Z,148334.61
2019-02-06T09:28:57.604Z,148328.31
2019-02-06T09:30:03.471Z,148332.75
2019-02-06T09:31:09.040Z,148338.41
2019-02-06T09:32:15.061Z,148296.16
2019-02-06T09:33:21.081Z,148270.30
2019-02-06T09:34:27.196Z,148323.92
2019-02-06T09:35:32.832Z,148370.58
2019-02-06T09:36:38.845Z,148366.81
2019-02-06T09:37:44.063Z,148353.53
2019-02-06T09:38:50.061Z,148347.25
2019-02-06T09:39:56.104Z,148347.88
2019-02-06T09:41:02.068Z,148392.63
2019-02-06T09:42:08.028Z,148382.58
2019-02-06T09:43:13.991Z,148382.58
2019-02-06T09:44:20.015Z,148454.48
2019-02-06T09:45:25.740Z,148448.19
2019-02-06T09:46:31.692Z,148433.69
2019-02-06T09:47:37.311Z,148474.69
2019-02-06T09:48:43.314Z,148508.78
2019-02-06T09:49:49.915Z,148477.81
2019-02-06T09:50:55.282Z,148504.97
2019-02-06T09:52:01.243Z,148494.22
2019-02-06T09:53:07.274Z,148509.41
2019-02-06T09:54:13.297Z,148501.20
2019-02-06T09:55:18.951Z,148486.02
2019-02-06T09:56:24.960Z,148489.19
2019-02-06T09:57:30.975Z,148475.33
2019-02-06T09:58:36.915Z,148506.88
2019-02-06T09:59:42.911Z,148535.88
2019-02-06T10:00:48.562Z,148561.17
2019-02-06T10:01:54.574Z,148570.59
2019-02-06T10:03:00.539Z,148582.61
2019-02-06T10:04:06.633Z,148556.09
2019-02-06T10:05:11.954Z,148605.31
2019-02-06T10:06:17.606Z,148653.34
2019-02-06T10:07:23.613Z,148690.56
2019-02-06T10:08:29.206Z,148713.33
2019-02-06T10:09:35.228Z,148740.45
2019-02-06T10:10:40.858Z,148743.63
2019-02-06T10:11:47.461Z,148688.66
2019-02-06T10:12:53.194Z,148674.78
2019-02-06T10:13:59.312Z,148674.78
2019-02-06T10:15:04.731Z,148680.45
2019-02-06T10:16:10.762Z,148706.34
2019-02-06T10:17:16.821Z,148718.37
2019-02-06T10:18:22.795Z,148699.41
2019-02-06T10:19:28.761Z,148720.27
2019-02-06T10:20:34.048Z,148702.59
2019-02-06T10:21:40.013Z,148688.03
2019-02-06T10:22:45.706Z,148699.41
2019-02-06T10:23:51.348Z,148720.91
2019-02-06T10:24:57.354Z,148720.27
2019-02-06T10:26:02.966Z,148727.84
2019-02-06T10:27:08.571Z,148749.94
2019-02-06T10:28:14.547Z,148787.22
2019-02-06T10:29:20.556Z,148753.11
2019-02-06T10:30:25.891Z,148810.58
2019-02-06T10:31:32.970Z,148830.81
2019-02-06T10:32:38.501Z,148792.25
2019-02-06T10:33:44.468Z,148785.31
2019-02-06T10:34:50.511Z,148809.94
2019-02-06T10:35:56.470Z,148827.00
2019-02-06T10:37:02.404Z,148809.94
2019-02-06T10:38:07.681Z,148849.09
2019-02-06T10:39:13.301Z,148912.31
2019-02-06T10:40:18.667Z,148833.94
2019-02-06T10:41:24.279Z,148856.72
2019-02-06T10:42:30.234Z,148817.52
2019-02-06T10:43:36.226Z,148825.73
2019-02-06T10:44:42.399Z,148816.87
2019-02-06T10:45:48.424Z,148858.58
2019-02-06T10:46:53.650Z,148927.52
2019-02-06T10:47:59.236Z,148904.73
2019-02-06T10:49:04.300Z,148888.31
2019-02-06T10:50:09.629Z,148926.20
2019-02-06T10:51:15.261Z,148906.00
2019-02-06T10:52:20.872Z,148931.33
2019-02-06T10:53:26.857Z,148895.25
2019-02-06T10:54:33.553Z,148891.44
2019-02-06T10:55:40.011Z,148882.59
2019-02-06T10:56:46.068Z,148900.28
2019-02-06T10:57:52.003Z,148967.31
2019-02-06T10:58:57.717Z,148969.86
2019-02-06T11:00:03.234Z,148944.58
2019-02-06T11:01:09.246Z,148966.73
2019-02-06T11:02:14.887Z,148948.39
2019-02-06T11:03:20.904Z,148919.25
2019-02-06T11:04:26.898Z,148921.80
2019-02-06T11:05:32.217Z,148988.84
2019-02-06T11:06:37.801Z,149010.94
2019-02-06T11:07:46.118Z,148954.70
2019-02-06T11:08:49.029Z,148986.94
2019-02-06T11:09:54.767Z,148972.41
2019-02-06T11:11:00.741Z,148982.53
2019-02-06T11:12:06.787Z,148971.12
2019-02-06T11:13:12.380Z,148959.73
2019-02-06T11:14:18.140Z,148949.67
2019-02-06T11:15:23.971Z,149003.36
2019-02-06T11:16:30.390Z,149019.80
2019-02-06T11:17:36.047Z,148982.53
2019-02-06T11:18:44.429Z,148951.53
2019-02-06T11:19:48.048Z,148983.81
2019-02-06T11:20:53.999Z,149028.66
2019-02-06T11:22:00.004Z,149043.22
2019-02-06T11:23:05.240Z,149031.19
2019-02-06T11:24:11.235Z,149052.67
2019-02-06T11:25:16.682Z,149083.05
2019-02-06T11:26:22.661Z,149098.22
2019-02-06T11:27:28.675Z,149124.14
2019-02-06T11:28:34.864Z,149083.69
2019-02-06T11:29:40.859Z,149110.88
2019-02-06T11:30:46.823Z,149086.81
2019-02-06T11:31:52.750Z,149128.55
2019-02-06T11:32:58.354Z,149122.88
2019-02-06T11:34:03.992Z,149164.61
2019-02-06T11:35:09.323Z,149177.28
2019-02-06T11:36:23.790Z,149204.44
2019-02-06T11:37:22.348Z,149157.66
2019-02-06T11:38:28.338Z,149195.00
2019-02-06T11:39:34.342Z,149210.81
2019-02-06T11:40:39.979Z,149220.30
2019-02-06T11:41:45.615Z,149220.30
2019-02-06T11:42:50.881Z,149240.52
2019-02-06T11:43:56.871Z,149282.91
2019-02-06T11:45:02.447Z,149329.75
2019-02-06T11:46:09.141Z,149294.94
2019-02-06T11:47:14.053Z,149291.77
2019-02-06T11:48:19.652Z,149317.08
2019-02-06T11:49:25.085Z,149330.39
2019-02-06T11:50:30.144Z,149360.11
2019-02-06T11:51:35.369Z,149356.94
2019-02-06T11:52:41.346Z,149334.16
2019-02-06T11:53:47.264Z,149377.84
2019-02-06T11:54:53.219Z,149337.98
2019-02-06T11:55:58.854Z,149332.89
2019-02-06T11:57:05.049Z,149327.84
2019-02-06T11:58:10.796Z,149306.31
2019-02-06T11:59:16.783Z,149316.44
2019-02-06T12:00:22.380Z,149322.17
2019-02-06T12:01:28.077Z,149334.16
2019-02-06T12:02:37.399Z,149347.48
2019-02-06T12:03:39.723Z,149355.06
2019-02-06T12:04:45.768Z,149377.20
2019-02-06T12:05:51.057Z,149425.94
2019-02-06T12:06:56.978Z,149477.22
2019-02-06T12:08:02.600Z,149479.13
2019-02-06T12:09:07.929Z,149474.08
2019-02-06T12:10:14.681Z,149467.06
2019-02-06T12:11:20.721Z,149480.39
2019-02-06T12:12:26.684Z,149459.47
2019-02-06T12:13:32.650Z,149433.52
2019-02-06T12:14:38.662Z,149379.75
2019-02-06T12:15:43.954Z,149446.84
2019-02-06T12:16:49.975Z,149413.94
2019-02-06T12:17:55.633Z,149424.06
2019-02-06T12:19:01.705Z,149409.47
2019-02-06T12:20:08.696Z,149440.53
2019-02-06T12:21:17.807Z,149448.75
2019-02-06T12:22:20.770Z,149455.06
2019-02-06T12:23:32.263Z,149415.84
2019-02-06T12:24:32.635Z,149409.47
2019-02-06T12:25:38.298Z,149412.02
2019-02-06T12:26:44.011Z,149443.02
2019-02-06T12:27:50.079Z,149412.02
2019-02-06T12:28:56.074Z,149387.34
2019-02-06T12:30:01.340Z,149432.30
2019-02-06T12:31:07.008Z,149475.30
2019-02-06T12:32:12.908Z,149493.03
2019-02-06T12:33:18.474Z,149473.44
2019-02-06T12:34:24.429Z,149479.13